Time;durP1;ratioP1;P1;durP2;ratioP2;P2;SDS_P1;SDS_P2;PMS_P1;PMS_P2;Temp;Humidity;BMP_temperature;BMP_pressure;BME280_temperature;BME280_humidity;BME280_pressure;Samples;Min_cycle;Max_cycle;Signal;HPM_P1;HPM_P2
2023/07/30 00:01:59;;;;;;;15.15;4.30;;;16.80;99.90;;;;;;5031024;28;20048;-64
2023/07/30 00:04:25;;;;;;;7.43;4.00;;;16.80;99.90;;;;;;5030642;28;20037;-64
2023/07/30 00:06:50;;;;;;;8.52;4.32;;;16.80;99.90;;;;;;5016798;28;20046;-64
2023/07/30 00:09:16;;;;;;;8.85;3.92;;;16.80;99.90;;;;;;5022936;28;20159;-64
2023/07/30 00:11:42;;;;;;;9.50;3.75;;;16.80;99.90;;;;;;5019020;28;20089;-64
2023/07/30 00:14:07;;;;;;;10.50;4.10;;;16.70;99.90;;;;;;5022056;28;20236;-64
2023/07/30 00:16:33;;;;;;;11.73;4.10;;;16.70;99.90;;;;;;5026640;28;20080;-64
2023/07/30 00:18:59;;;;;;;10.90;4.05;;;16.70;99.90;;;;;;5030343;28;20055;-64
2023/07/30 00:21:24;;;;;;;10.15;4.32;;;16.70;99.90;;;;;;5028098;28;20431;-64
2023/07/30 00:23:50;;;;;;;12.00;4.25;;;16.70;99.90;;;;;;5029643;28;20079;-64
2023/07/30 00:26:15;;;;;;;11.00;4.10;;;16.60;99.90;;;;;;5020135;28;20404;-64
2023/07/30 00:28:41;;;;;;;10.48;3.88;;;16.60;99.90;;;;;;5030067;28;20037;-64
2023/07/30 00:31:06;;;;;;;11.32;4.05;;;16.60;99.90;;;;;;5033808;28;20175;-64
2023/07/30 00:33:32;;;;;;;14.35;4.47;;;16.60;99.90;;;;;;5026971;28;20538;-64
2023/07/30 00:35:58;;;;;;;9.70;3.67;;;16.60;99.90;;;;;;5019852;28;20045;-65
2023/07/30 00:38:23;;;;;;;11.10;3.83;;;16.50;99.90;;;;;;5024705;28;20030;-64
2023/07/30 00:40:49;;;;;;;9.40;4.10;;;16.50;99.90;;;;;;5022108;28;20077;-64
2023/07/30 00:43:15;;;;;;;10.52;4.30;;;16.50;99.90;;;;;;5014199;28;20046;-64
2023/07/30 00:45:43;;;;;;;9.55;4.22;;;16.50;99.90;;;;;;5014799;28;20038;-64
2023/07/30 00:48:10;;;;;;;12.50;4.68;;;16.50;99.90;;;;;;5029497;28;20506;-64
2023/07/30 00:50:37;;;;;;;13.98;4.80;;;16.40;99.90;;;;;;5032167;28;20119;-64
2023/07/30 00:53:03;;;;;;;10.48;4.00;;;16.40;99.90;;;;;;5022823;28;20033;-64
2023/07/30 00:55:29;;;;;;;13.20;4.05;;;16.40;99.90;;;;;;5020437;28;20095;-64
2023/07/30 00:57:54;;;;;;;11.93;4.50;;;16.40;99.90;;;;;;5023132;28;20543;-64
2023/07/30 01:00:22;;;;;;;12.20;4.10;;;16.30;99.90;;;;;;5025597;28;20041;-64
2023/07/30 01:02:47;;;;;;;9.50;3.58;;;16.30;99.90;;;;;;5027876;28;20049;-64
2023/07/30 01:05:13;;;;;;;9.57;3.65;;;16.30;99.90;;;;;;5026690;28;20045;-64
2023/07/30 01:07:38;;;;;;;13.40;4.25;;;16.20;99.90;;;;;;5026881;28;20045;-64
2023/07/30 01:10:05;;;;;;;12.27;4.60;;;16.20;99.90;;;;;;5031650;28;20040;-64
2023/07/30 01:12:32;;;;;;;14.15;4.30;;;16.20;99.90;;;;;;5027612;28;20526;-64
2023/07/30 01:14:59;;;;;;;9.35;4.25;;;16.10;99.90;;;;;;5018297;28;20619;-64
2023/07/30 01:17:24;;;;;;;12.07;4.32;;;16.10;99.90;;;;;;5024177;28;20038;-64
2023/07/30 01:19:54;;;;;;;15.88;3.70;;;16.10;99.90;;;;;;5031283;28;20041;-64
2023/07/30 01:22:20;;;;;;;12.82;3.83;;;16.10;99.90;;;;;;5020538;28;20030;-64
2023/07/30 01:24:47;;;;;;;9.40;3.80;;;16.10;99.90;;;;;;5030947;28;20509;-64
2023/07/30 01:27:21;;;;;;;13.75;4.45;;;16.10;99.90;;;;;;5030337;28;20730;-64
2023/07/30 01:29:58;;;;;;;11.95;3.90;;;16.00;99.90;;;;;;5021576;28;20034;-64
2023/07/30 01:32:26;;;;;;;10.20;4.13;;;16.00;99.90;;;;;;5023868;28;20041;-63
2023/07/30 01:34:57;;;;;;;7.93;3.65;;;16.00;99.90;;;;;;5025239;28;20116;-63
2023/07/30 01:37:23;;;;;;;;;;;16.00;99.90;;;;;;5015856;28;20033;-64
2023/07/30 01:39:49;;;;;;;10.70;3.80;;;15.90;99.90;;;;;;5024553;28;19917;-63
2023/07/30 01:42:16;;;;;;;12.07;3.78;;;15.90;99.90;;;;;;5028050;28;20095;-63
2023/07/30 01:44:41;;;;;;;7.00;3.30;;;15.90;99.90;;;;;;5023292;28;20056;-64
2023/07/30 01:47:07;;;;;;;9.18;3.70;;;15.90;99.90;;;;;;5029474;28;20546;-64
2023/07/30 01:49:33;;;;;;;10.65;3.92;;;15.90;99.90;;;;;;5026582;28;20063;-63
2023/07/30 01:51:59;;;;;;;12.80;3.78;;;15.90;99.90;;;;;;5027729;28;20415;-64
2023/07/30 01:54:25;;;;;;;13.43;3.40;;;15.80;99.90;;;;;;5027892;28;20044;-63
2023/07/30 01:56:50;;;;;;;9.25;3.75;;;15.90;99.90;;;;;;5028836;28;20116;-63
2023/07/30 01:59:16;;;;;;;11.18;3.40;;;15.80;99.90;;;;;;5030082;28;20061;-64
2023/07/30 02:01:43;;;;;;;15.45;3.90;;;15.80;99.90;;;;;;5023905;28;20152;-63
2023/07/30 02:04:08;;;;;;;9.93;3.78;;;15.80;99.90;;;;;;5019966;28;20042;-64
2023/07/30 02:06:34;;;;;;;10.45;3.95;;;15.80;99.90;;;;;;5024684;28;20521;-64
2023/07/30 02:09:00;;;;;;;10.30;4.05;;;15.80;99.90;;;;;;5030678;28;20083;-64
2023/07/30 02:11:25;;;;;;;11.90;3.55;;;15.80;99.90;;;;;;5025091;28;20447;-63
2023/07/30 02:13:51;;;;;;;10.25;4.05;;;15.80;99.90;;;;;;5027412;28;20450;-64
2023/07/30 02:16:16;;;;;;;14.02;3.63;;;15.70;99.90;;;;;;5022039;28;20034;-64
2023/07/30 02:18:42;;;;;;;9.90;3.80;;;15.70;99.90;;;;;;5016277;28;20130;-64
2023/07/30 02:21:08;;;;;;;11.63;4.38;;;15.70;99.90;;;;;;5012797;28;20049;-63
2023/07/30 02:23:33;;;;;;;10.10;3.70;;;15.70;99.90;;;;;;5022413;28;20443;-64
2023/07/30 02:25:59;;;;;;;10.07;3.63;;;15.60;99.90;;;;;;5029793;28;20041;-63
2023/07/30 02:28:24;;;;;;;11.52;3.17;;;15.70;99.90;;;;;;5031604;28;20057;-64
2023/07/30 02:30:50;;;;;;;11.10;3.55;;;15.60;99.90;;;;;;5032069;28;20411;-64
2023/07/30 02:33:15;;;;;;;12.57;3.92;;;15.60;99.90;;;;;;5026517;28;20037;-63
2023/07/30 02:35:43;;;;;;;16.50;3.70;;;15.60;99.90;;;;;;5024990;28;20065;-64
2023/07/30 02:38:08;;;;;;;11.45;3.45;;;15.60;99.90;;;;;;5012147;28;20038;-63
2023/07/30 02:40:34;;;;;;;12.90;3.70;;;15.60;99.90;;;;;;5020188;28;20108;-63
2023/07/30 02:43:00;;;;;;;8.77;3.25;;;15.60;99.90;;;;;;5026930;28;20040;-63
2023/07/30 02:45:26;;;;;;;7.20;3.53;;;15.50;99.90;;;;;;5022442;28;20103;-64
2023/07/30 02:47:51;;;;;;;7.18;3.20;;;15.50;99.90;;;;;;5028942;28;20554;-64
2023/07/30 02:50:17;;;;;;;9.38;3.55;;;15.50;99.90;;;;;;5027378;28;20052;-64
2023/07/30 02:52:43;;;;;;;7.10;3.30;;;15.50;99.90;;;;;;5015606;28;20403;-64
2023/07/30 02:55:08;;;;;;;9.43;3.47;;;15.50;99.90;;;;;;5021314;28;20504;-64
2023/07/30 02:57:34;;;;;;;10.50;3.60;;;15.50;99.90;;;;;;5017986;28;20056;-64
2023/07/30 02:59:59;;;;;;;10.27;4.00;;;15.50;99.90;;;;;;5018653;28;20060;-63
2023/07/30 03:02:25;;;;;;;9.50;3.13;;;15.50;99.90;;;;;;5022488;28;20041;-64
2023/07/30 03:04:51;;;;;;;9.32;3.55;;;15.50;99.90;;;;;;5019920;28;20038;-63
2023/07/30 03:07:18;;;;;;;16.00;4.13;;;15.50;99.90;;;;;;5023396;28;20124;-64
2023/07/30 03:09:43;;;;;;;15.07;3.50;;;15.50;99.90;;;;;;5011918;28;20042;-64
2023/07/30 03:12:09;;;;;;;13.32;4.38;;;15.50;99.90;;;;;;5013284;28;20064;-64
2023/07/30 03:14:35;;;;;;;14.45;3.78;;;15.50;99.90;;;;;;5032686;28;20076;-64
2023/07/30 03:17:00;;;;;;;11.70;3.90;;;15.40;99.90;;;;;;5025986;28;20033;-64
2023/07/30 03:19:26;;;;;;;9.57;3.60;;;15.40;99.90;;;;;;5022106;28;20614;-63
2023/07/30 03:21:51;;;;;;;7.93;3.20;;;15.40;99.90;;;;;;5016073;28;20045;-63
2023/07/30 03:24:17;;;;;;;10.20;3.35;;;15.40;99.90;;;;;;5027686;28;20038;-64
2023/07/30 03:26:43;;;;;;;8.10;3.63;;;15.40;99.90;;;;;;5028081;28;20078;-64
2023/07/30 03:29:08;;;;;;;8.05;3.42;;;15.40;99.90;;;;;;5026060;28;20053;-63
2023/07/30 03:31:34;;;;;;;9.65;3.83;;;15.30;99.90;;;;;;5019579;28;20053;-64
2023/07/30 03:33:59;;;;;;;11.60;3.50;;;15.40;99.90;;;;;;5020355;28;20164;-64
2023/07/30 03:36:25;;;;;;;10.10;3.60;;;15.30;99.90;;;;;;5027355;28;20164;-64
2023/07/30 03:38:50;;;;;;;11.80;3.28;;;15.30;99.90;;;;;;5023220;28;20042;-64
2023/07/30 03:41:16;;;;;;;10.93;3.28;;;15.30;99.90;;;;;;5017753;28;20049;-64
2023/07/30 03:43:42;;;;;;;13.50;3.75;;;15.20;99.90;;;;;;5027130;28;20096;-63
2023/07/30 03:46:07;;;;;;;7.25;3.22;;;15.30;99.90;;;;;;5024687;28;20513;-63
2023/07/30 03:48:33;;;;;;;8.63;3.40;;;15.20;99.90;;;;;;5026903;28;20041;-63
2023/07/30 03:50:58;;;;;;;11.23;3.97;;;15.20;99.90;;;;;;5032045;28;20045;-63
2023/07/30 03:53:24;;;;;;;8.25;3.85;;;15.10;99.90;;;;;;5022055;28;20373;-63
2023/07/30 03:55:50;;;;;;;8.48;3.50;;;15.20;99.90;;;;;;5028381;28;20112;-65
2023/07/30 03:58:15;;;;;;;10.90;3.85;;;15.20;99.90;;;;;;5023229;28;20033;-63
2023/07/30 04:00:41;;;;;;;10.73;3.42;;;15.20;99.90;;;;;;5025075;28;20415;-64
2023/07/30 04:03:07;;;;;;;10.73;3.90;;;15.20;99.90;;;;;;5025506;28;20041;-64
2023/07/30 04:05:33;;;;;;;8.35;3.42;;;15.20;99.90;;;;;;5018168;28;20045;-63
2023/07/30 04:07:58;;;;;;;14.70;4.28;;;15.20;99.90;;;;;;5020497;28;20037;-63
2023/07/30 04:10:24;;;;;;;12.10;3.30;;;15.20;99.90;;;;;;5016616;28;20042;-63
2023/07/30 04:12:50;;;;;;;9.65;3.55;;;15.20;99.90;;;;;;5029585;28;20041;-63
2023/07/30 04:15:16;;;;;;;9.75;3.70;;;15.20;99.90;;;;;;5022767;28;20034;-64
2023/07/30 04:17:42;;;;;;;12.68;4.40;;;15.20;99.90;;;;;;5029546;28;20504;-64
2023/07/30 04:20:11;;;;;;;11.07;4.07;;;15.20;99.90;;;;;;5027019;28;20037;-63
2023/07/30 04:22:37;;;;;;;10.88;3.63;;;15.20;99.90;;;;;;5028494;28;20041;-64
2023/07/30 04:25:03;;;;;;;12.90;3.95;;;15.20;99.90;;;;;;5022377;28;20030;-64
2023/07/30 04:27:29;;;;;;;11.70;4.03;;;15.20;99.90;;;;;;5031564;28;20037;-64
2023/07/30 04:29:54;;;;;;;11.57;3.72;;;15.20;99.90;;;;;;5023763;28;20048;-64
2023/07/30 04:32:20;;;;;;;10.40;4.05;;;15.20;99.90;;;;;;5033054;28;20025;-64
2023/07/30 04:34:46;;;;;;;15.25;4.68;;;15.20;99.90;;;;;;5017393;28;20030;-64
2023/07/30 04:37:11;;;;;;;9.77;3.88;;;15.20;99.90;;;;;;5025940;28;20034;-64
2023/07/30 04:39:37;;;;;;;11.57;4.00;;;15.20;99.90;;;;;;5021995;28;20168;-64
2023/07/30 04:42:03;;;;;;;11.18;3.70;;;15.20;99.90;;;;;;5024238;28;20038;-64
2023/07/30 04:44:29;;;;;;;8.40;4.25;;;15.20;99.90;;;;;;5020689;28;20041;-64
2023/07/30 04:46:54;;;;;;;11.38;4.60;;;15.20;99.90;;;;;;5012479;28;20116;-64
2023/07/30 04:49:20;;;;;;;15.20;4.85;;;15.30;99.90;;;;;;5021847;28;20047;-64
2023/07/30 04:51:46;;;;;;;12.07;4.20;;;15.30;99.90;;;;;;5025192;28;20034;-64
2023/07/30 04:54:12;;;;;;;13.15;3.88;;;15.30;99.90;;;;;;5028425;28;20048;-64
2023/07/30 04:56:37;;;;;;;15.30;4.28;;;15.30;99.90;;;;;;5017730;28;20170;-64
2023/07/30 04:59:03;;;;;;;11.30;4.35;;;15.40;99.90;;;;;;5027415;28;20041;-64
2023/07/30 05:01:29;;;;;;;11.85;4.80;;;15.40;99.90;;;;;;5033904;28;20076;-64
2023/07/30 05:03:54;;;;;;;11.63;3.80;;;15.30;99.90;;;;;;5033076;28;20084;-65
2023/07/30 05:06:20;;;;;;;16.38;4.57;;;15.40;99.90;;;;;;5033439;28;20037;-64
2023/07/30 05:08:46;;;;;;;12.75;4.65;;;15.40;99.90;;;;;;5027423;28;20041;-64
2023/07/30 05:11:11;;;;;;;10.98;4.50;;;15.50;99.90;;;;;;5032735;28;20124;-64
2023/07/30 05:13:37;;;;;;;11.13;4.70;;;15.50;99.90;;;;;;5030968;28;20155;-65
2023/07/30 05:16:03;;;;;;;10.02;4.13;;;15.50;99.90;;;;;;5023141;28;20403;-64
2023/07/30 05:18:28;;;;;;;16.00;6.18;;;15.50;99.90;;;;;;5027640;28;20037;-64
2023/07/30 05:20:54;;;;;;;17.10;4.60;;;15.50;99.90;;;;;;5031137;28;20045;-64
2023/07/30 05:23:20;;;;;;;12.10;4.63;;;15.60;99.90;;;;;;5029006;28;20080;-64
2023/07/30 05:25:46;;;;;;;13.43;4.55;;;15.60;99.90;;;;;;5022760;28;20041;-64
2023/07/30 05:28:13;;;;;;;11.93;4.47;;;15.60;99.90;;;;;;5013000;28;20380;-64
2023/07/30 05:30:38;;;;;;;12.32;4.55;;;15.60;99.90;;;;;;5022977;28;20041;-64
2023/07/30 05:33:04;;;;;;;17.05;4.55;;;15.60;99.90;;;;;;5028263;28;20036;-64
2023/07/30 05:35:30;;;;;;;11.57;4.30;;;15.70;99.90;;;;;;5032304;28;20076;-63
2023/07/30 05:37:56;;;;;;;16.60;4.78;;;15.70;99.90;;;;;;5058361;22;20041;-68
2023/07/30 05:40:22;;;;;;;15.93;4.95;;;15.70;99.90;;;;;;5041350;28;20167;-68
2023/07/30 05:42:47;;;;;;;15.35;5.03;;;15.80;99.90;;;;;;5036946;28;20453;-69
2023/07/30 05:45:13;;;;;;;14.05;5.00;;;15.80;99.90;;;;;;5059003;28;20078;-69
2023/07/30 05:47:39;;;;;;;15.35;4.47;;;15.90;99.90;;;;;;5029686;28;20073;-69
2023/07/30 05:50:07;;;;;;;14.30;4.75;;;15.90;99.90;;;;;;5034703;28;20040;-69
2023/07/30 05:52:33;;;;;;;11.43;4.35;;;15.90;99.90;;;;;;5032330;28;20052;-69
2023/07/30 05:54:58;;;;;;;12.50;4.35;;;16.00;99.90;;;;;;5032012;28;20395;-69
2023/07/30 05:57:24;;;;;;;15.82;4.68;;;15.90;99.90;;;;;;5028480;28;20120;-69
2023/07/30 05:59:50;;;;;;;14.05;4.57;;;16.00;99.90;;;;;;5031150;28;20036;-69
2023/07/30 06:02:15;;;;;;;13.27;4.78;;;16.00;99.90;;;;;;5037328;28;20037;-69
2023/07/30 06:04:41;;;;;;;13.13;5.15;;;16.00;99.90;;;;;;5033731;28;20124;-69
2023/07/30 06:07:07;;;;;;;12.15;4.57;;;16.10;99.90;;;;;;5014613;28;20112;-69
2023/07/30 06:09:32;;;;;;;14.90;4.65;;;16.10;99.90;;;;;;5024901;28;20387;-69
2023/07/30 06:11:59;;;;;;;15.32;5.00;;;16.20;99.90;;;;;;5023146;28;20049;-69
2023/07/30 06:14:25;;;;;;;17.83;5.72;;;16.20;99.90;;;;;;5021919;28;20029;-69
2023/07/30 06:16:51;;;;;;;14.30;5.88;;;16.30;99.90;;;;;;5019610;28;20029;-68
2023/07/30 06:19:17;;;;;;;15.75;4.82;;;16.30;99.90;;;;;;5019527;28;20495;-68
2023/07/30 06:21:43;;;;;;;13.50;4.43;;;16.30;99.90;;;;;;5020959;28;20036;-69
2023/07/30 06:24:08;;;;;;;16.08;5.18;;;16.40;99.90;;;;;;5019249;28;20047;-69
2023/07/30 06:26:34;;;;;;;14.18;4.60;;;16.40;99.90;;;;;;5018863;28;20091;-69
2023/07/30 06:29:00;;;;;;;15.90;5.05;;;16.50;99.90;;;;;;5016441;28;20104;-69
2023/07/30 06:31:25;;;;;;;22.00;5.40;;;16.50;99.90;;;;;;5023313;28;20565;-69
2023/07/30 06:33:51;;;;;;;13.45;4.97;;;16.60;99.90;;;;;;5021003;28;20754;-69
2023/07/30 06:36:16;;;;;;;20.23;5.55;;;16.70;99.90;;;;;;5020680;28;20079;-69
2023/07/30 06:38:42;;;;;;;15.90;5.22;;;16.70;99.90;;;;;;5024361;28;20026;-69
2023/07/30 06:41:08;;;;;;;17.55;4.63;;;16.70;99.90;;;;;;5024097;28;20038;-69
2023/07/30 06:43:33;;;;;;;18.70;5.40;;;16.80;99.90;;;;;;5017880;28;20041;-69
2023/07/30 06:45:59;;;;;;;17.55;5.82;;;16.80;99.90;;;;;;5021991;28;20037;-69
2023/07/30 06:48:24;;;;;;;15.52;5.00;;;16.90;99.90;;;;;;5011750;28;20048;-69
2023/07/30 06:50:50;;;;;;;20.90;5.60;;;16.90;99.90;;;;;;5006954;28;20037;-69
2023/07/30 06:53:16;;;;;;;19.23;6.15;;;17.00;99.90;;;;;;5009964;28;20541;-69
2023/07/30 06:55:41;;;;;;;23.58;5.47;;;17.00;99.90;;;;;;5016184;28;20037;-69
2023/07/30 06:58:07;;;;;;;15.52;5.53;;;17.10;99.90;;;;;;5018913;28;20025;-69
2023/07/30 07:00:33;;;;;;;19.20;5.25;;;17.20;99.90;;;;;;5017417;28;20037;-69
2023/07/30 07:02:58;;;;;;;15.63;5.35;;;17.20;99.90;;;;;;5020640;28;20514;-69
2023/07/30 07:05:24;;;;;;;17.30;5.25;;;17.30;99.90;;;;;;5015906;28;20049;-70
2023/07/30 07:07:50;;;;;;;19.83;5.25;;;17.30;99.90;;;;;;5018934;28;20052;-69
2023/07/30 07:10:18;;;;;;;19.02;5.50;;;17.30;99.90;;;;;;5021047;28;20037;-69
2023/07/30 07:12:44;;;;;;;20.80;5.70;;;17.30;99.90;;;;;;5022321;28;20038;-69
2023/07/30 07:15:09;;;;;;;18.38;4.90;;;17.30;99.90;;;;;;5021544;28;20029;-70
2023/07/30 07:17:35;;;;;;;16.08;4.93;;;17.40;99.90;;;;;;5016737;28;20368;-69
2023/07/30 07:20:01;;;;;;;20.08;5.60;;;17.50;99.90;;;;;;5016958;28;20030;-69
2023/07/30 07:22:26;;;;;;;19.90;5.15;;;17.60;99.90;;;;;;5017819;28;20108;-70
2023/07/30 07:24:52;;;;;;;21.23;5.72;;;17.60;99.90;;;;;;5017491;28;20058;-69
2023/07/30 07:27:19;;;;;;;23.08;5.53;;;17.70;99.90;;;;;;5017733;28;20037;-69
2023/07/30 07:29:44;;;;;;;13.38;4.95;;;17.70;99.90;;;;;;5021035;28;20045;-69
2023/07/30 07:32:10;;;;;;;17.45;5.68;;;17.80;99.90;;;;;;5022081;28;20057;-69
2023/07/30 07:34:36;;;;;;;19.42;5.72;;;17.80;99.90;;;;;;5027835;28;20052;-70
2023/07/30 07:37:02;;;;;;;15.75;5.88;;;17.80;99.90;;;;;;5023975;28;20409;-69
2023/07/30 07:39:28;;;;;;;15.15;5.05;;;17.80;99.90;;;;;;5032284;28;20090;-70
2023/07/30 07:41:54;;;;;;;18.60;5.82;;;17.80;99.90;;;;;;5027315;28;20131;-69
2023/07/30 07:44:19;;;;;;;20.27;5.60;;;17.70;99.90;;;;;;5029707;28;20034;-70
2023/07/30 07:46:45;;;;;;;14.95;5.38;;;17.70;99.90;;;;;;5030930;28;20522;-69
2023/07/30 07:49:13;;;;;;;15.43;6.00;;;17.70;99.90;;;;;;5023061;28;20041;-69
2023/07/30 07:51:39;;;;;;;18.75;6.43;;;17.90;99.90;;;;;;5019882;28;20411;-70
2023/07/30 07:54:05;;;;;;;18.50;6.10;;;18.10;99.90;;;;;;5022832;28;20033;-70
2023/07/30 07:56:31;;;;;;;17.15;5.47;;;18.30;99.90;;;;;;5023488;28;20116;-70
2023/07/30 07:58:57;;;;;;;19.33;5.22;;;18.60;99.90;;;;;;5029749;28;20038;-70
2023/07/30 08:01:23;;;;;;;17.35;5.18;;;18.80;99.90;;;;;;5020992;28;20100;-70
2023/07/30 08:03:48;;;;;;;21.08;5.63;;;18.90;99.90;;;;;;5014102;28;20041;-70
2023/07/30 08:06:14;;;;;;;15.57;5.25;;;19.10;99.90;;;;;;5030918;28;20525;-70
2023/07/30 08:08:39;;;;;;;18.75;5.97;;;19.10;99.90;;;;;;5024535;28;20041;-70
2023/07/30 08:11:07;;;;;;;17.98;5.72;;;19.30;99.90;;;;;;5031000;28;20033;-70
2023/07/30 08:13:32;;;;;;;14.27;5.35;;;19.60;99.90;;;;;;5031176;28;20037;-70
2023/07/30 08:15:58;;;;;;;17.38;5.25;;;19.70;99.90;;;;;;5031290;28;20056;-70
2023/07/30 08:18:24;;;;;;;17.60;5.75;;;19.80;99.90;;;;;;5037141;28;20040;-70
2023/07/30 08:20:50;;;;;;;16.63;4.97;;;19.80;99.90;;;;;;5040042;28;20196;-70
2023/07/30 08:23:15;;;;;;;16.67;4.80;;;19.90;99.90;;;;;;5033093;28;20034;-70
2023/07/30 08:25:41;;;;;;;14.88;4.55;;;20.10;99.90;;;;;;5029515;28;20091;-70
2023/07/30 08:28:06;;;;;;;16.70;5.00;;;20.20;99.90;;;;;;5025649;28;20036;-70
2023/07/30 08:30:32;;;;;;;15.27;4.30;;;20.30;99.90;;;;;;5029462;28;20052;-70
2023/07/30 08:32:58;;;;;;;13.30;4.15;;;20.30;99.90;;;;;;5027876;28;20034;-69
2023/07/30 08:35:24;;;;;;;16.08;3.88;;;20.20;99.90;;;;;;5045507;28;20037;-70
2023/07/30 08:37:49;;;;;;;13.73;4.50;;;20.10;99.90;;;;;;5039430;28;20278;-70
2023/07/30 08:40:15;;;;;;;14.80;4.05;;;20.00;99.90;;;;;;5030747;28;20113;-70
2023/07/30 08:42:41;;;;;;;17.20;3.83;;;20.00;99.90;;;;;;5029539;28;20033;-70
2023/07/30 08:45:10;;;;;;;13.20;3.92;;;20.10;99.90;;;;;;5032420;28;20048;-70
2023/07/30 08:47:36;;;;;;;14.60;3.70;;;20.40;99.90;;;;;;5042221;28;20041;-70
2023/07/30 08:50:01;;;;;;;15.40;3.97;;;20.50;99.90;;;;;;5032546;28;20057;-70
2023/07/30 08:52:29;;;;;;;13.40;3.78;;;20.50;99.90;;;;;;5028564;28;20491;-70
2023/07/30 08:54:58;;;;;;;10.73;3.80;;;20.50;99.90;;;;;;5031544;28;20037;-69
2023/07/30 08:57:26;;;;;;;14.00;4.30;;;20.30;99.90;;;;;;5032496;28;20590;-69
2023/07/30 08:59:58;;;;;;;12.07;3.80;;;20.30;99.90;;;;;;5029653;28;20442;-69
2023/07/30 09:02:33;;;;;;;15.73;4.47;;;20.30;99.90;;;;;;5032184;28;20055;-69
2023/07/30 09:05:00;;;;;;;11.48;3.47;;;20.30;99.90;;;;;;5029474;28;20438;-70
2023/07/30 09:07:26;;;;;;;14.05;4.07;;;20.30;99.90;;;;;;5029292;28;20041;-70
2023/07/30 09:09:51;;;;;;;15.75;4.82;;;20.20;99.90;;;;;;5035093;28;20049;-70
2023/07/30 09:12:17;;;;;;;19.38;5.00;;;20.10;99.90;;;;;;5025058;28;20033;-70
2023/07/30 09:14:46;;;;;;;15.13;4.85;;;20.10;99.90;;;;;;5035434;28;20033;-69
2023/07/30 09:17:18;;;;;;;10.65;4.28;;;20.00;99.90;;;;;;5023886;28;20442;-69
2023/07/30 09:19:46;;;;;;;13.23;4.38;;;20.00;99.90;;;;;;5020853;28;20033;-69
2023/07/30 09:22:12;;;;;;;10.98;4.38;;;19.90;99.90;;;;;;5032640;28;20041;-69
2023/07/30 09:24:45;;;;;;;14.23;3.78;;;19.80;99.90;;;;;;5031120;28;20037;-69
2023/07/30 09:27:11;;;;;;;16.33;4.88;;;19.80;99.90;;;;;;5034734;28;20107;-70
2023/07/30 09:29:36;;;;;;;17.40;4.93;;;19.80;99.90;;;;;;5032248;28;20033;-69
2023/07/30 09:32:02;;;;;;;9.60;3.72;;;19.80;99.90;;;;;;5032570;28;20046;-69
2023/07/30 09:34:30;;;;;;;11.73;4.13;;;19.90;99.90;;;;;;5030662;28;20045;-69
2023/07/30 09:36:56;;;;;;;9.85;4.18;;;19.90;99.90;;;;;;5027059;28;20041;-70
2023/07/30 09:39:24;;;;;;;10.57;3.28;;;19.80;99.90;;;;;;5028867;28;20042;-72
2023/07/30 09:41:51;;;;;;;12.55;3.40;;;19.60;99.90;;;;;;5028823;28;20517;-69
2023/07/30 09:44:21;;;;;;;11.27;3.20;;;19.50;99.90;;;;;;5031214;28;20040;-69
2023/07/30 09:46:49;;;;;;;8.57;3.33;;;19.40;99.90;;;;;;5031664;28;20037;-69
2023/07/30 09:49:15;;;;;;;8.38;3.30;;;19.30;99.90;;;;;;5022557;28;20044;-69
2023/07/30 09:51:41;;;;;;;12.45;3.58;;;19.20;99.90;;;;;;5015688;28;20052;-69
2023/07/30 09:54:08;;;;;;;10.13;3.33;;;19.10;99.90;;;;;;5024454;28;20046;-69
2023/07/30 09:56:36;;;;;;;12.25;3.75;;;19.00;99.90;;;;;;5024849;28;20411;-69
2023/07/30 09:59:01;;;;;;;15.20;4.53;;;18.90;99.90;;;;;;5024932;28;20562;-69
2023/07/30 10:01:30;;;;;;;14.73;4.28;;;18.80;99.90;;;;;;5038845;28;20125;-69
2023/07/30 10:03:57;;;;;;;13.30;5.18;;;18.80;99.90;;;;;;5031245;28;20036;-69
2023/07/30 10:06:29;;;;;;;13.90;4.68;;;18.70;99.90;;;;;;5030887;28;20064;-68
2023/07/30 10:08:59;;;;;;;12.35;3.00;;;18.60;99.90;;;;;;5030190;28;20052;-71
2023/07/30 10:11:25;;;;;;;4.80;1.67;;;18.30;99.90;;;;;;5026849;28;20423;-69
2023/07/30 10:13:52;;;;;;;6.95;2.22;;;18.00;99.90;;;;;;5022313;28;20099;-71
2023/07/30 10:16:18;;;;;;;4.68;1.98;;;17.70;99.90;;;;;;5034749;28;20098;-70
2023/07/30 10:18:44;;;;;;;3.30;1.52;;;17.50;99.90;;;;;;5024558;28;20116;-70
2023/07/30 10:21:22;;;;;;;6.85;1.70;;;17.50;99.90;;;;;;5015986;28;20041;-69
2023/07/30 10:24:04;;;;;;;4.68;1.50;;;17.50;99.90;;;;;;5019643;28;20069;-70
2023/07/30 10:26:35;;;;;;;5.35;2.00;;;17.70;99.90;;;;;;5025707;28;20041;-70
2023/07/30 10:29:13;;;;;;;5.65;1.60;;;17.70;99.90;;;;;;5020624;28;20033;-69
2023/07/30 10:31:56;;;;;;;5.40;1.58;;;17.80;99.90;;;;;;5024027;28;20045;-69
2023/07/30 10:34:25;;;;;;;6.88;2.13;;;17.70;99.90;;;;;;5028760;28;20064;-70
2023/07/30 10:36:52;;;;;;;4.30;1.70;;;17.60;99.90;;;;;;5051715;28;20094;-69
2023/07/30 10:39:25;;;;;;;8.55;2.92;;;17.40;99.90;;;;;;5040144;28;20083;-68
2023/07/30 10:41:54;;;;;;;7.47;2.25;;;17.30;99.90;;;;;;5038647;28;20086;-69
2023/07/30 10:44:28;;;;;;;9.43;2.42;;;17.10;99.90;;;;;;5030212;28;20049;-68
2023/07/30 10:46:55;;;;;;;7.65;2.22;;;17.10;99.90;;;;;;5030450;28;20038;-68
2023/07/30 10:49:21;;;;;;;8.90;2.17;;;17.00;99.90;;;;;;5030326;28;20483;-68
2023/07/30 10:51:47;;;;;;;7.40;2.10;;;16.90;99.90;;;;;;5031608;28;20046;-67
2023/07/30 10:54:12;;;;;;;6.43;2.28;;;16.90;99.90;;;;;;5036308;28;20120;-68
2023/07/30 10:56:40;;;;;;;7.88;2.40;;;16.90;99.90;;;;;;5035010;28;20033;-68
2023/07/30 10:59:07;;;;;;;6.78;2.40;;;16.90;99.90;;;;;;5030261;28;20038;-68
2023/07/30 11:01:38;;;;;;;13.63;3.53;;;17.10;99.90;;;;;;5027222;28;20423;-68
2023/07/30 11:04:18;;;;;;;8.95;3.13;;;17.40;99.90;;;;;;5025280;28;20049;-69
2023/07/30 11:06:51;;;;;;;13.98;3.35;;;17.60;99.90;;;;;;5022372;28;20328;-69
2023/07/30 11:09:26;;;;;;;9.63;3.30;;;17.90;99.90;;;;;;5032122;28;20041;-69
2023/07/30 11:11:54;;;;;;;9.93;3.33;;;18.30;99.90;;;;;;5027460;28;20049;-68
2023/07/30 11:14:21;;;;;;;11.23;3.00;;;18.60;99.90;;;;;;5027308;28;20055;-69
2023/07/30 11:16:51;;;;;;;15.68;3.30;;;18.90;99.90;;;;;;5035237;28;20041;-69
2023/07/30 11:19:17;;;;;;;11.77;2.38;;;19.10;99.90;;;;;;5024921;28;20042;-69
2023/07/30 11:21:50;;;;;;;11.65;3.10;;;19.40;99.90;;;;;;5023733;28;20167;-69
2023/07/30 11:24:16;;;;;;;8.32;2.10;;;19.60;99.90;;;;;;5018924;28;20059;-69
2023/07/30 11:26:43;;;;;;;8.30;2.30;;;19.80;99.90;;;;;;5024277;28;20034;-69
2023/07/30 11:29:19;;;;;;;7.07;2.08;;;20.00;99.90;;;;;;5022485;28;20491;-69
2023/07/30 11:31:46;;;;;;;6.38;1.70;;;20.10;99.90;;;;;;5021331;28;20507;-68
2023/07/30 11:34:16;;;;;;;7.88;1.80;;;20.20;99.90;;;;;;5017935;28;20040;-68
2023/07/30 11:36:42;;;;;;;7.05;1.85;;;20.30;99.90;;;;;;5043470;22;20026;-64
2023/07/30 11:39:09;;;;;;;9.27;1.95;;;20.40;99.90;;;;;;5061527;28;20471;-65
2023/07/30 11:41:36;;;;;;;8.20;1.83;;;20.60;99.90;;;;;;5060230;28;20040;-65
2023/07/30 11:44:02;;;;;;;6.97;1.58;;;20.70;99.90;;;;;;5059055;28;20150;-65
2023/07/30 11:46:29;;;;;;;5.90;1.73;;;20.80;99.90;;;;;;5064284;28;20086;-65
2023/07/30 11:49:17;;;;;;;8.52;2.00;;;21.00;99.90;;;;;;5043923;28;20053;-65
2023/07/30 11:51:43;;;;;;;3.70;1.40;;;21.10;99.90;;;;;;5043066;28;20037;-65
2023/07/30 11:54:19;;;;;;;5.13;1.30;;;21.20;99.90;;;;;;5045913;28;20055;-65
2023/07/30 11:56:45;;;;;;;5.30;1.48;;;21.20;99.90;;;;;;5042987;28;20079;-64
2023/07/30 11:59:10;;;;;;;6.43;1.50;;;21.30;99.90;;;;;;5045996;28;20061;-64
2023/07/30 12:01:36;;;;;;;4.88;1.70;;;21.30;99.90;;;;;;5043656;28;20041;-64
2023/07/30 12:04:06;;;;;;;5.07;1.38;;;21.40;99.90;;;;;;5043996;28;20034;-64
2023/07/30 12:06:41;;;;;;;4.90;1.35;;;21.40;99.90;;;;;;5043746;28;20050;-64
2023/07/30 12:09:14;;;;;;;5.97;1.95;;;21.40;99.90;;;;;;5044132;28;20039;-64
2023/07/30 12:11:57;;;;;;;7.25;1.23;;;21.40;99.90;;;;;;5041289;28;20052;-64
2023/07/30 12:14:29;;;;;;;7.00;1.35;;;21.40;99.90;;;;;;5041948;28;20033;-64
2023/07/30 12:16:59;;;;;;;5.32;1.48;;;21.50;99.90;;;;;;5042853;28;20033;-64
2023/07/30 12:19:25;;;;;;;5.32;1.35;;;21.60;99.90;;;;;;5043919;28;20064;-64
2023/07/30 12:21:50;;;;;;;4.88;1.33;;;21.80;99.90;;;;;;5043314;28;20110;-65
2023/07/30 12:24:16;;;;;;;3.40;0.98;;;21.80;99.90;;;;;;5039366;28;20433;-65
2023/07/30 12:26:41;;;;;;;9.65;2.28;;;21.70;99.90;;;;;;5045219;28;20114;-64
2023/07/30 12:29:07;;;;;;;8.93;1.58;;;21.50;99.90;;;;;;5051096;28;20138;-65
2023/07/30 12:31:33;;;;;;;8.38;1.30;;;21.50;99.90;;;;;;5047148;28;20098;-64
2023/07/30 12:33:58;;;;;;;7.25;1.25;;;21.50;99.90;;;;;;5049242;28;20120;-65
2023/07/30 12:36:24;;;;;;;8.50;1.38;;;21.40;99.90;;;;;;5049529;28;20031;-64
2023/07/30 12:38:52;;;;;;;6.38;1.10;;;21.30;99.90;;;;;;5048218;28;20041;-65